sensor_id;sensor_type;location;lat;lon;timestamp;temperature;humidity
64997;SHT31;51545;51.568;6.998;2023-08-08T00:01:54;14.87;88.12
64997;SHT31;51545;51.568;6.998;2023-08-08T00:04:20;14.83;87.93
64997;SHT31;51545;51.568;6.998;2023-08-08T00:06:45;14.84;88.40
64997;SHT31;51545;51.568;6.998;2023-08-08T00:09:10;14.80;88.60
64997;SHT31;51545;51.568;6.998;2023-08-08T00:11:36;14.73;88.17
64997;SHT31;51545;51.568;6.998;2023-08-08T00:14:01;14.76;88.26
64997;SHT31;51545;51.568;6.998;2023-08-08T00:16:27;14.78;88.42
64997;SHT31;51545;51.568;6.998;2023-08-08T00:18:52;14.69;88.85
64997;SHT31;51545;51.568;6.998;2023-08-08T00:21:21;14.69;89.05
64997;SHT31;51545;51.568;6.998;2023-08-08T00:23:47;14.64;88.89
64997;SHT31;51545;51.568;6.998;2023-08-08T00:26:12;14.61;89.08
64997;SHT31;51545;51.568;6.998;2023-08-08T00:28:38;14.59;88.98
64997;SHT31;51545;51.568;6.998;2023-08-08T00:31:03;14.59;89.00
64997;SHT31;51545;51.568;6.998;2023-08-08T00:33:29;14.59;89.00
64997;SHT31;51545;51.568;6.998;2023-08-08T00:35:54;14.59;88.79
64997;SHT31;51545;51.568;6.998;2023-08-08T00:38:20;14.52;88.87
64997;SHT31;51545;51.568;6.998;2023-08-08T00:40:45;14.46;88.87
64997;SHT31;51545;51.568;6.998;2023-08-08T00:43:11;14.48;88.78
64997;SHT31;51545;51.568;6.998;2023-08-08T00:45:36;14.46;88.70
64997;SHT31;51545;51.568;6.998;2023-08-08T00:48:03;14.67;87.27
64997;SHT31;51545;51.568;6.998;2023-08-08T00:50:29;14.61;87.55
64997;SHT31;51545;51.568;6.998;2023-08-08T00:52:54;14.59;87.55
64997;SHT31;51545;51.568;6.998;2023-08-08T00:55:20;14.73;86.41
64997;SHT31;51545;51.568;6.998;2023-08-08T00:57:46;14.74;86.39
64997;SHT31;51545;51.568;6.998;2023-08-08T01:00:12;14.77;85.93
64997;SHT31;51545;51.568;6.998;2023-08-08T01:02:37;14.88;85.43
64997;SHT31;51545;51.568;6.998;2023-08-08T01:05:04;14.87;85.51
64997;SHT31;51545;51.568;6.998;2023-08-08T01:07:45;14.88;85.73
64997;SHT31;51545;51.568;6.998;2023-08-08T01:10:29;14.89;85.25
64997;SHT31;51545;51.568;6.998;2023-08-08T01:13:00;14.97;84.96
64997;SHT31;51545;51.568;6.998;2023-08-08T01:15:32;14.89;85.29
64997;SHT31;51545;51.568;6.998;2023-08-08T01:18:04;14.98;84.59
64997;SHT31;51545;51.568;6.998;2023-08-08T01:20:31;14.99;84.69
64997;SHT31;51545;51.568;6.998;2023-08-08T01:23:04;14.97;84.47
64997;SHT31;51545;51.568;6.998;2023-08-08T01:25:32;14.99;84.62
64997;SHT31;51545;51.568;6.998;2023-08-08T01:27:58;14.95;84.75
64997;SHT31;51545;51.568;6.998;2023-08-08T01:30:23;14.94;85.18
64997;SHT31;51545;51.568;6.998;2023-08-08T01:32:48;14.94;84.81
64997;SHT31;51545;51.568;6.998;2023-08-08T01:35:14;14.85;84.79
64997;SHT31;51545;51.568;6.998;2023-08-08T01:37:41;14.87;85.02
64997;SHT31;51545;51.568;6.998;2023-08-08T01:40:12;14.81;84.93
64997;SHT31;51545;51.568;6.998;2023-08-08T01:42:41;14.74;85.48
64997;SHT31;51545;51.568;6.998;2023-08-08T01:45:08;14.63;85.86
64997;SHT31;51545;51.568;6.998;2023-08-08T01:47:35;14.57;85.78
64997;SHT31;51545;51.568;6.998;2023-08-08T01:50:00;14.60;85.91
64997;SHT31;51545;51.568;6.998;2023-08-08T01:52:26;14.42;86.70
64997;SHT31;51545;51.568;6.998;2023-08-08T01:54:51;14.46;86.45
64997;SHT31;51545;51.568;6.998;2023-08-08T01:57:17;14.59;86.34
64997;SHT31;51545;51.568;6.998;2023-08-08T01:59:44;14.53;86.24
64997;SHT31;51545;51.568;6.998;2023-08-08T02:02:10;14.59;86.18
64997;SHT31;51545;51.568;6.998;2023-08-08T02:04:35;14.57;86.49
64997;SHT31;51545;51.568;6.998;2023-08-08T02:07:01;14.57;86.19
64997;SHT31;51545;51.568;6.998;2023-08-08T02:09:26;14.53;87.01
64997;SHT31;51545;51.568;6.998;2023-08-08T02:11:52;14.50;86.95
64997;SHT31;51545;51.568;6.998;2023-08-08T02:14:18;14.53;86.81
64997;SHT31;51545;51.568;6.998;2023-08-08T02:16:43;14.55;86.98
64997;SHT31;51545;51.568;6.998;2023-08-08T02:19:08;14.49;86.74
64997;SHT31;51545;51.568;6.998;2023-08-08T02:21:34;14.52;87.04
64997;SHT31;51545;51.568;6.998;2023-08-08T02:23:59;14.48;87.14
64997;SHT31;51545;51.568;6.998;2023-08-08T02:26:25;14.46;87.08
64997;SHT31;51545;51.568;6.998;2023-08-08T02:28:51;14.48;87.60
64997;SHT31;51545;51.568;6.998;2023-08-08T02:31:16;14.42;87.52
64997;SHT31;51545;51.568;6.998;2023-08-08T02:33:47;14.34;87.48
64997;SHT31;51545;51.568;6.998;2023-08-08T02:36:14;14.40;87.87
64997;SHT31;51545;51.568;6.998;2023-08-08T02:38:40;14.36;87.81
64997;SHT31;51545;51.568;6.998;2023-08-08T02:41:05;14.30;87.89
64997;SHT31;51545;51.568;6.998;2023-08-08T02:43:30;14.26;88.04
64997;SHT31;51545;51.568;6.998;2023-08-08T02:45:56;14.29;88.29
64997;SHT31;51545;51.568;6.998;2023-08-08T02:48:21;14.26;88.35
64997;SHT31;51545;51.568;6.998;2023-08-08T02:50:47;14.29;88.71
64997;SHT31;51545;51.568;6.998;2023-08-08T02:53:12;14.28;88.38
64997;SHT31;51545;51.568;6.998;2023-08-08T02:55:38;14.29;88.41
64997;SHT31;51545;51.568;6.998;2023-08-08T02:58:03;14.32;88.65
64997;SHT31;51545;51.568;6.998;2023-08-08T03:00:29;14.25;89.04
64997;SHT31;51545;51.568;6.998;2023-08-08T03:02:54;14.22;89.05
64997;SHT31;51545;51.568;6.998;2023-08-08T03:05:20;14.16;89.17
64997;SHT31;51545;51.568;6.998;2023-08-08T03:07:45;14.16;89.29
64997;SHT31;51545;51.568;6.998;2023-08-08T03:10:11;14.25;89.24
64997;SHT31;51545;51.568;6.998;2023-08-08T03:12:37;14.26;89.26
64997;SHT31;51545;51.568;6.998;2023-08-08T03:15:03;14.21;89.85
64997;SHT31;51545;51.568;6.998;2023-08-08T03:17:29;14.21;89.85
64997;SHT31;51545;51.568;6.998;2023-08-08T03:19:55;14.15;89.95
64997;SHT31;51545;51.568;6.998;2023-08-08T03:22:20;14.16;90.40
64997;SHT31;51545;51.568;6.998;2023-08-08T03:24:45;14.18;90.32
64997;SHT31;51545;51.568;6.998;2023-08-08T03:27:11;14.14;90.63
64997;SHT31;51545;51.568;6.998;2023-08-08T03:29:36;14.12;91.10
64997;SHT31;51545;51.568;6.998;2023-08-08T03:32:02;14.05;91.84
64997;SHT31;51545;51.568;6.998;2023-08-08T03:34:29;14.06;92.22
64997;SHT31;51545;51.568;6.998;2023-08-08T03:36:55;13.94;92.70
64997;SHT31;51545;51.568;6.998;2023-08-08T03:39:20;13.94;93.40
64997;SHT31;51545;51.568;6.998;2023-08-08T03:41:46;13.87;93.73
64997;SHT31;51545;51.568;6.998;2023-08-08T03:44:12;13.90;94.27
64997;SHT31;51545;51.568;6.998;2023-08-08T03:46:37;13.87;94.31
64997;SHT31;51545;51.568;6.998;2023-08-08T03:49:03;13.81;94.94
64997;SHT31;51545;51.568;6.998;2023-08-08T03:51:28;13.86;94.90
64997;SHT31;51545;51.568;6.998;2023-08-08T03:53:54;13.67;95.79
64997;SHT31;51545;51.568;6.998;2023-08-08T03:56:19;13.61;95.96
64997;SHT31;51545;51.568;6.998;2023-08-08T03:58:45;13.67;96.16
64997;SHT31;51545;51.568;6.998;2023-08-08T04:01:11;13.66;96.43
64997;SHT31;51545;51.568;6.998;2023-08-08T04:03:36;13.57;96.51
64997;SHT31;51545;51.568;6.998;2023-08-08T04:06:02;13.66;96.67
64997;SHT31;51545;51.568;6.998;2023-08-08T04:08:28;13.64;96.69
64997;SHT31;51545;51.568;6.998;2023-08-08T04:10:53;13.67;96.56
64997;SHT31;51545;51.568;6.998;2023-08-08T04:13:19;13.63;96.67
64997;SHT31;51545;51.568;6.998;2023-08-08T04:15:45;13.59;96.98
64997;SHT31;51545;51.568;6.998;2023-08-08T04:18:10;13.59;97.02
64997;SHT31;51545;51.568;6.998;2023-08-08T04:20:36;13.63;97.14
64997;SHT31;51545;51.568;6.998;2023-08-08T04:23:01;13.63;96.83
64997;SHT31;51545;51.568;6.998;2023-08-08T04:25:27;13.50;97.40
64997;SHT31;51545;51.568;6.998;2023-08-08T04:27:53;13.59;97.21
64997;SHT31;51545;51.568;6.998;2023-08-08T04:30:18;13.53;96.99
64997;SHT31;51545;51.568;6.998;2023-08-08T04:32:44;13.49;97.19
64997;SHT31;51545;51.568;6.998;2023-08-08T04:35:10;13.53;97.16
64997;SHT31;51545;51.568;6.998;2023-08-08T04:37:35;13.54;97.21
64997;SHT31;51545;51.568;6.998;2023-08-08T04:40:00;13.60;97.05
64997;SHT31;51545;51.568;6.998;2023-08-08T04:42:26;13.52;97.00
64997;SHT31;51545;51.568;6.998;2023-08-08T04:44:51;13.57;96.88
64997;SHT31;51545;51.568;6.998;2023-08-08T04:47:17;13.59;96.83
64997;SHT31;51545;51.568;6.998;2023-08-08T04:49:42;13.63;96.83
64997;SHT31;51545;51.568;6.998;2023-08-08T04:52:08;13.64;96.88
64997;SHT31;51545;51.568;6.998;2023-08-08T04:54:33;13.69;96.94
64997;SHT31;51545;51.568;6.998;2023-08-08T04:56:59;13.67;97.12
64997;SHT31;51545;51.568;6.998;2023-08-08T04:59:24;13.66;96.93
64997;SHT31;51545;51.568;6.998;2023-08-08T05:01:50;13.67;97.29
64997;SHT31;51545;51.568;6.998;2023-08-08T05:04:15;13.71;97.14
64997;SHT31;51545;51.568;6.998;2023-08-08T05:06:42;13.70;96.96
64997;SHT31;51545;51.568;6.998;2023-08-08T05:09:07;13.71;96.89
64997;SHT31;51545;51.568;6.998;2023-08-08T05:11:34;13.71;96.64
64997;SHT31;51545;51.568;6.998;2023-08-08T05:14:00;13.71;96.86
64997;SHT31;51545;51.568;6.998;2023-08-08T05:16:26;13.69;96.83
64997;SHT31;51545;51.568;6.998;2023-08-08T05:18:51;13.73;96.85
64997;SHT31;51545;51.568;6.998;2023-08-08T05:21:17;13.73;97.07
64997;SHT31;51545;51.568;6.998;2023-08-08T05:23:42;13.69;97.02
64997;SHT31;51545;51.568;6.998;2023-08-08T05:26:07;13.73;97.14
64997;SHT31;51545;51.568;6.998;2023-08-08T05:28:33;13.73;96.92
64997;SHT31;51545;51.568;6.998;2023-08-08T05:30:58;13.77;97.09
64997;SHT31;51545;51.568;6.998;2023-08-08T05:33:24;13.77;96.91
64997;SHT31;51545;51.568;6.998;2023-08-08T05:35:49;13.83;96.93
64997;SHT31;51545;51.568;6.998;2023-08-08T05:38:15;13.80;96.89
64997;SHT31;51545;51.568;6.998;2023-08-08T05:40:41;13.77;97.02
64997;SHT31;51545;51.568;6.998;2023-08-08T05:43:06;13.87;96.91
64997;SHT31;51545;51.568;6.998;2023-08-08T05:45:33;13.88;97.03
64997;SHT31;51545;51.568;6.998;2023-08-08T05:47:59;13.94;96.96
64997;SHT31;51545;51.568;6.998;2023-08-08T05:50:26;13.90;97.08
64997;SHT31;51545;51.568;6.998;2023-08-08T05:52:53;13.91;97.12
64997;SHT31;51545;51.568;6.998;2023-08-08T05:55:18;14.01;96.94
64997;SHT31;51545;51.568;6.998;2023-08-08T05:57:44;13.98;96.76
64997;SHT31;51545;51.568;6.998;2023-08-08T06:00:09;13.95;97.07
64997;SHT31;51545;51.568;6.998;2023-08-08T06:02:36;13.95;96.92
64997;SHT31;51545;51.568;6.998;2023-08-08T06:05:02;13.98;97.09
64997;SHT31;51545;51.568;6.998;2023-08-08T06:07:29;14.04;97.11
64997;SHT31;51545;51.568;6.998;2023-08-08T06:09:54;14.16;97.02
64997;SHT31;51545;51.568;6.998;2023-08-08T06:12:20;14.14;96.78
64997;SHT31;51545;51.568;6.998;2023-08-08T06:14:45;14.16;96.41
64997;SHT31;51545;51.568;6.998;2023-08-08T06:17:11;14.16;96.44
64997;SHT31;51545;51.568;6.998;2023-08-08T06:19:36;14.12;96.83
64997;SHT31;51545;51.568;6.998;2023-08-08T06:22:02;14.25;96.64
64997;SHT31;51545;51.568;6.998;2023-08-08T06:24:28;14.29;96.51
64997;SHT31;51545;51.568;6.998;2023-08-08T06:26:54;14.39;96.42
64997;SHT31;51545;51.568;6.998;2023-08-08T06:29:19;14.30;96.40
64997;SHT31;51545;51.568;6.998;2023-08-08T06:31:45;14.34;96.35
64997;SHT31;51545;51.568;6.998;2023-08-08T06:34:10;14.34;96.36
64997;SHT31;51545;51.568;6.998;2023-08-08T06:36:36;14.46;96.37
64997;SHT31;51545;51.568;6.998;2023-08-08T06:39:01;14.46;95.92
64997;SHT31;51545;51.568;6.998;2023-08-08T06:41:27;14.42;95.87
64997;SHT31;51545;51.568;6.998;2023-08-08T06:43:52;14.49;95.80
64997;SHT31;51545;51.568;6.998;2023-08-08T06:46:18;14.52;95.88
64997;SHT31;51545;51.568;6.998;2023-08-08T06:48:45;14.49;95.79
64997;SHT31;51545;51.568;6.998;2023-08-08T06:51:12;14.49;95.77
64997;SHT31;51545;51.568;6.998;2023-08-08T06:53:37;14.64;95.90
64997;SHT31;51545;51.568;6.998;2023-08-08T06:56:03;14.59;95.40
64997;SHT31;51545;51.568;6.998;2023-08-08T06:58:29;14.59;94.99
64997;SHT31;51545;51.568;6.998;2023-08-08T07:00:54;14.73;94.85
64997;SHT31;51545;51.568;6.998;2023-08-08T07:03:19;14.97;94.25
64997;SHT31;51545;51.568;6.998;2023-08-08T07:05:45;14.92;94.01
64997;SHT31;51545;51.568;6.998;2023-08-08T07:08:12;14.89;94.02
64997;SHT31;51545;51.568;6.998;2023-08-08T07:10:38;14.92;93.80
64997;SHT31;51545;51.568;6.998;2023-08-08T07:13:03;15.01;93.77
64997;SHT31;51545;51.568;6.998;2023-08-08T07:15:29;14.99;93.71
64997;SHT31;51545;51.568;6.998;2023-08-08T07:17:55;15.02;93.80
64997;SHT31;51545;51.568;6.998;2023-08-08T07:20:20;15.01;93.85
64997;SHT31;51545;51.568;6.998;2023-08-08T07:22:47;15.09;93.56
64997;SHT31;51545;51.568;6.998;2023-08-08T07:25:13;15.26;93.06
64997;SHT31;51545;51.568;6.998;2023-08-08T07:27:38;15.39;92.12
64997;SHT31;51545;51.568;6.998;2023-08-08T07:30:04;15.47;91.98
64997;SHT31;51545;51.568;6.998;2023-08-08T07:32:32;15.36;91.91
64997;SHT31;51545;51.568;6.998;2023-08-08T07:34:58;15.39;91.59
64997;SHT31;51545;51.568;6.998;2023-08-08T07:37:23;15.63;91.09
64997;SHT31;51545;51.568;6.998;2023-08-08T07:39:50;15.63;90.52
64997;SHT31;51545;51.568;6.998;2023-08-08T07:42:16;15.75;90.72
64997;SHT31;51545;51.568;6.998;2023-08-08T07:44:42;15.98;90.29
64997;SHT31;51545;51.568;6.998;2023-08-08T07:47:07;16.02;90.02
64997;SHT31;51545;51.568;6.998;2023-08-08T07:49:33;16.29;90.08
64997;SHT31;51545;51.568;6.998;2023-08-08T07:51:58;16.28;88.62
64997;SHT31;51545;51.568;6.998;2023-08-08T07:54:24;16.33;88.28
64997;SHT31;51545;51.568;6.998;2023-08-08T07:56:49;16.44;87.74
64997;SHT31;51545;51.568;6.998;2023-08-08T07:59:14;16.47;88.04
64997;SHT31;51545;51.568;6.998;2023-08-08T08:01:41;16.43;88.19
64997;SHT31;51545;51.568;6.998;2023-08-08T08:04:06;16.64;86.92
64997;SHT31;51545;51.568;6.998;2023-08-08T08:06:32;16.89;86.63
64997;SHT31;51545;51.568;6.998;2023-08-08T08:08:57;17.08;86.85
64997;SHT31;51545;51.568;6.998;2023-08-08T08:11:23;16.95;85.71
64997;SHT31;51545;51.568;6.998;2023-08-08T08:13:49;17.14;85.06
64997;SHT31;51545;51.568;6.998;2023-08-08T08:16:15;17.15;85.50
64997;SHT31;51545;51.568;6.998;2023-08-08T08:18:40;17.15;85.20
64997;SHT31;51545;51.568;6.998;2023-08-08T08:21:05;16.84;84.74
64997;SHT31;51545;51.568;6.998;2023-08-08T08:23:31;16.94;84.63
64997;SHT31;51545;51.568;6.998;2023-08-08T08:25:57;17.14;84.07
64997;SHT31;51545;51.568;6.998;2023-08-08T08:28:23;16.78;83.72
64997;SHT31;51545;51.568;6.998;2023-08-08T08:30:48;16.91;83.81
64997;SHT31;51545;51.568;6.998;2023-08-08T08:33:15;16.91;82.51
64997;SHT31;51545;51.568;6.998;2023-08-08T08:35:40;16.95;82.98
64997;SHT31;51545;51.568;6.998;2023-08-08T08:38:05;17.22;82.26
64997;SHT31;51545;51.568;6.998;2023-08-08T08:40:36;17.32;80.51
64997;SHT31;51545;51.568;6.998;2023-08-08T08:43:03;17.18;81.06
64997;SHT31;51545;51.568;6.998;2023-08-08T08:45:29;16.92;80.81
64997;SHT31;51545;51.568;6.998;2023-08-08T08:47:55;16.99;83.03
64997;SHT31;51545;51.568;6.998;2023-08-08T08:50:22;17.11;82.02
64997;SHT31;51545;51.568;6.998;2023-08-08T08:52:51;17.23;82.52
64997;SHT31;51545;51.568;6.998;2023-08-08T08:55:20;17.44;82.34
64997;SHT31;51545;51.568;6.998;2023-08-08T08:57:46;17.51;78.87
64997;SHT31;51545;51.568;6.998;2023-08-08T09:00:13;17.51;78.86
64997;SHT31;51545;51.568;6.998;2023-08-08T09:02:39;17.46;79.42
64997;SHT31;51545;51.568;6.998;2023-08-08T09:05:04;17.27;80.53
64997;SHT31;51545;51.568;6.998;2023-08-08T09:07:31;17.14;80.54
64997;SHT31;51545;51.568;6.998;2023-08-08T09:09:57;17.26;80.36
64997;SHT31;51545;51.568;6.998;2023-08-08T09:12:22;17.42;80.90
64997;SHT31;51545;51.568;6.998;2023-08-08T09:14:53;17.42;79.76
64997;SHT31;51545;51.568;6.998;2023-08-08T09:17:21;17.69;80.89
64997;SHT31;51545;51.568;6.998;2023-08-08T09:19:46;17.74;80.19
64997;SHT31;51545;51.568;6.998;2023-08-08T09:22:12;17.70;78.31
64997;SHT31;51545;51.568;6.998;2023-08-08T09:24:39;17.73;77.50
64997;SHT31;51545;51.568;6.998;2023-08-08T09:27:06;17.85;78.00
64997;SHT31;51545;51.568;6.998;2023-08-08T09:29:32;18.23;76.96
64997;SHT31;51545;51.568;6.998;2023-08-08T09:31:58;17.91;77.27
64997;SHT31;51545;51.568;6.998;2023-08-08T09:34:26;17.67;76.36
64997;SHT31;51545;51.568;6.998;2023-08-08T09:36:53;17.60;77.12
64997;SHT31;51545;51.568;6.998;2023-08-08T09:39:19;17.55;76.82
64997;SHT31;51545;51.568;6.998;2023-08-08T09:41:46;17.74;75.52
64997;SHT31;51545;51.568;6.998;2023-08-08T09:44:12;17.88;75.51
64997;SHT31;51545;51.568;6.998;2023-08-08T09:46:38;17.77;77.28
64997;SHT31;51545;51.568;6.998;2023-08-08T09:49:05;17.77;77.50
64997;SHT31;51545;51.568;6.998;2023-08-08T09:51:31;17.80;76.74
64997;SHT31;51545;51.568;6.998;2023-08-08T09:53:59;18.16;76.23
64997;SHT31;51545;51.568;6.998;2023-08-08T09:56:25;17.97;76.70
64997;SHT31;51545;51.568;6.998;2023-08-08T09:58:52;17.47;76.98
64997;SHT31;51545;51.568;6.998;2023-08-08T10:01:18;17.30;78.58
64997;SHT31;51545;51.568;6.998;2023-08-08T10:03:45;17.29;79.14
64997;SHT31;51545;51.568;6.998;2023-08-08T10:06:11;17.12;79.91
64997;SHT31;51545;51.568;6.998;2023-08-08T10:08:37;17.09;78.80
64997;SHT31;51545;51.568;6.998;2023-08-08T10:11:03;16.98;79.11
64997;SHT31;51545;51.568;6.998;2023-08-08T10:13:31;16.97;81.02
64997;SHT31;51545;51.568;6.998;2023-08-08T10:15:56;16.89;80.33
64997;SHT31;51545;51.568;6.998;2023-08-08T10:18:22;17.06;80.30
64997;SHT31;51545;51.568;6.998;2023-08-08T10:20:49;17.35;79.25
64997;SHT31;51545;51.568;6.998;2023-08-08T10:23:15;17.64;76.84
64997;SHT31;51545;51.568;6.998;2023-08-08T10:25:44;17.55;78.38
64997;SHT31;51545;51.568;6.998;2023-08-08T10:28:11;17.42;76.83
64997;SHT31;51545;51.568;6.998;2023-08-08T10:30:43;17.26;77.43
64997;SHT31;51545;51.568;6.998;2023-08-08T10:38:39;16.50;84.27
64997;SHT31;51545;51.568;6.998;2023-08-08T10:41:08;16.08;86.15
64997;SHT31;51545;51.568;6.998;2023-08-08T10:43:50;16.01;87.41
64997;SHT31;51545;51.568;6.998;2023-08-08T10:46:29;15.97;87.50
64997;SHT31;51545;51.568;6.998;2023-08-08T10:48:57;16.09;87.76
64997;SHT31;51545;51.568;6.998;2023-08-08T10:51:46;16.54;86.73
64997;SHT31;51545;51.568;6.998;2023-08-08T10:54:24;16.75;86.57
64997;SHT31;51545;51.568;6.998;2023-08-08T10:56:56;16.74;85.37
64997;SHT31;51545;51.568;6.998;2023-08-08T10:59:24;16.88;85.55
64997;SHT31;51545;51.568;6.998;2023-08-08T11:01:51;16.99;84.82
64997;SHT31;51545;51.568;6.998;2023-08-08T11:04:21;17.09;84.87
64997;SHT31;51545;51.568;6.998;2023-08-08T11:06:49;17.26;84.20
64997;SHT31;51545;51.568;6.998;2023-08-08T11:09:15;17.42;83.47
64997;SHT31;51545;51.568;6.998;2023-08-08T11:11:43;17.70;85.84
64997;SHT31;51545;51.568;6.998;2023-08-08T11:14:10;17.30;83.99
64997;SHT31;51545;51.568;6.998;2023-08-08T11:16:44;17.11;82.62
64997;SHT31;51545;51.568;6.998;2023-08-08T11:19:10;16.97;83.18
64997;SHT31;51545;51.568;6.998;2023-08-08T11:21:37;16.89;82.89
64997;SHT31;51545;51.568;6.998;2023-08-08T11:24:05;16.88;79.89
64997;SHT31;51545;51.568;6.998;2023-08-08T11:26:32;16.97;78.75
64997;SHT31;51545;51.568;6.998;2023-08-08T11:28:59;16.98;80.30
64997;SHT31;51545;51.568;6.998;2023-08-08T11:31:25;17.05;78.70
64997;SHT31;51545;51.568;6.998;2023-08-08T11:33:52;17.22;78.16
64997;SHT31;51545;51.568;6.998;2023-08-08T11:36:19;17.60;78.66
64997;SHT31;51545;51.568;6.998;2023-08-08T11:38:44;17.74;77.49
64997;SHT31;51545;51.568;6.998;2023-08-08T11:41:10;18.32;76.82
64997;SHT31;51545;51.568;6.998;2023-08-08T11:43:37;19.27;73.89
64997;SHT31;51545;51.568;6.998;2023-08-08T11:46:08;19.72;69.93
64997;SHT31;51545;51.568;6.998;2023-08-08T11:48:34;20.19;69.72
64997;SHT31;51545;51.568;6.998;2023-08-08T11:51:03;20.05;70.43
64997;SHT31;51545;51.568;6.998;2023-08-08T11:53:29;19.53;71.80
64997;SHT31;51545;51.568;6.998;2023-08-08T11:55:54;20.26;69.68
64997;SHT31;51545;51.568;6.998;2023-08-08T11:58:23;19.78;68.44
64997;SHT31;51545;51.568;6.998;2023-08-08T12:00:49;20.33;66.93
64997;SHT31;51545;51.568;6.998;2023-08-08T12:03:17;20.08;68.95
64997;SHT31;51545;51.568;6.998;2023-08-08T12:05:45;19.12;69.27
64997;SHT31;51545;51.568;6.998;2023-08-08T12:08:20;18.72;69.85
64997;SHT31;51545;51.568;6.998;2023-08-08T12:10:50;18.64;71.02
64997;SHT31;51545;51.568;6.998;2023-08-08T12:13:21;18.89;71.28
64997;SHT31;51545;51.568;6.998;2023-08-08T12:15:48;19.33;70.21
64997;SHT31;51545;51.568;6.998;2023-08-08T12:18:18;19.40;71.91
64997;SHT31;51545;51.568;6.998;2023-08-08T12:20:44;20.25;68.93
64997;SHT31;51545;51.568;6.998;2023-08-08T12:23:09;20.85;65.95
64997;SHT31;51545;51.568;6.998;2023-08-08T12:25:35;21.53;66.04
64997;SHT31;51545;51.568;6.998;2023-08-08T12:28:01;21.43;64.23
64997;SHT31;51545;51.568;6.998;2023-08-08T12:30:27;20.26;65.98
64997;SHT31;51545;51.568;6.998;2023-08-08T12:32:53;19.55;66.79
64997;SHT31;51545;51.568;6.998;2023-08-08T12:35:18;19.27;68.04
64997;SHT31;51545;51.568;6.998;2023-08-08T12:37:45;19.18;69.45
64997;SHT31;51545;51.568;6.998;2023-08-08T12:40:11;18.95;70.64
64997;SHT31;51545;51.568;6.998;2023-08-08T12:42:37;19.60;69.43
64997;SHT31;51545;51.568;6.998;2023-08-08T12:45:03;20.67;66.01
64997;SHT31;51545;51.568;6.998;2023-08-08T12:47:29;21.32;67.30
64997;SHT31;51545;51.568;6.998;2023-08-08T12:49:54;22.12;63.87
64997;SHT31;51545;51.568;6.998;2023-08-08T12:52:20;21.33;64.35
64997;SHT31;51545;51.568;6.998;2023-08-08T12:54:45;20.71;66.14
64997;SHT31;51545;51.568;6.998;2023-08-08T12:57:10;20.48;66.26
64997;SHT31;51545;51.568;6.998;2023-08-08T12:59:36;20.10;66.32
64997;SHT31;51545;51.568;6.998;2023-08-08T13:02:02;19.93;68.40
64997;SHT31;51545;51.568;6.998;2023-08-08T13:04:27;19.83;68.24
64997;SHT31;51545;51.568;6.998;2023-08-08T13:06:53;19.63;68.70
64997;SHT31;51545;51.568;6.998;2023-08-08T13:09:19;19.32;69.00
64997;SHT31;51545;51.568;6.998;2023-08-08T13:11:44;19.20;69.67
64997;SHT31;51545;51.568;6.998;2023-08-08T13:14:10;18.89;71.79
64997;SHT31;51545;51.568;6.998;2023-08-08T13:16:37;19.05;70.88
64997;SHT31;51545;51.568;6.998;2023-08-08T13:19:02;19.77;70.22
64997;SHT31;51545;51.568;6.998;2023-08-08T13:21:29;20.51;69.58
64997;SHT31;51545;51.568;6.998;2023-08-08T13:23:54;20.04;67.49
64997;SHT31;51545;51.568;6.998;2023-08-08T13:26:20;20.29;68.92
64997;SHT31;51545;51.568;6.998;2023-08-08T13:28:45;19.83;67.80
64997;SHT31;51545;51.568;6.998;2023-08-08T13:31:11;19.70;69.77
64997;SHT31;51545;51.568;6.998;2023-08-08T13:33:36;19.67;69.08
64997;SHT31;51545;51.568;6.998;2023-08-08T13:36:02;19.85;70.38
64997;SHT31;51545;51.568;6.998;2023-08-08T13:38:27;19.71;70.23
64997;SHT31;51545;51.568;6.998;2023-08-08T13:40:54;19.91;69.58
64997;SHT31;51545;51.568;6.998;2023-08-08T13:43:20;19.78;67.97
64997;SHT31;51545;51.568;6.998;2023-08-08T13:45:45;19.72;68.93
64997;SHT31;51545;51.568;6.998;2023-08-08T13:48:11;19.85;68.85
64997;SHT31;51545;51.568;6.998;2023-08-08T13:50:36;19.57;69.83
64997;SHT31;51545;51.568;6.998;2023-08-08T13:53:02;19.49;70.61
64997;SHT31;51545;51.568;6.998;2023-08-08T13:55:28;19.33;70.30
64997;SHT31;51545;51.568;6.998;2023-08-08T13:57:54;19.40;70.73
64997;SHT31;51545;51.568;6.998;2023-08-08T14:00:20;19.44;72.35
64997;SHT31;51545;51.568;6.998;2023-08-08T14:02:47;19.39;72.17
64997;SHT31;51545;51.568;6.998;2023-08-08T14:05:12;19.15;72.42
64997;SHT31;51545;51.568;6.998;2023-08-08T14:07:38;18.96;72.58
64997;SHT31;51545;51.568;6.998;2023-08-08T14:10:04;18.65;73.62
64997;SHT31;51545;51.568;6.998;2023-08-08T14:12:30;18.74;72.77
64997;SHT31;51545;51.568;6.998;2023-08-08T14:14:55;19.63;69.72
64997;SHT31;51545;51.568;6.998;2023-08-08T14:17:21;20.26;68.66
64997;SHT31;51545;51.568;6.998;2023-08-08T14:19:47;20.81;67.10
64997;SHT31;51545;51.568;6.998;2023-08-08T14:22:12;22.02;64.51
64997;SHT31;51545;51.568;6.998;2023-08-08T14:24:37;22.53;63.17
64997;SHT31;51545;51.568;6.998;2023-08-08T14:27:03;21.44;64.30
64997;SHT31;51545;51.568;6.998;2023-08-08T14:29:28;22.39;64.44
64997;SHT31;51545;51.568;6.998;2023-08-08T14:31:54;21.06;65.13
64997;SHT31;51545;51.568;6.998;2023-08-08T14:34:27;20.80;66.98
64997;SHT31;51545;51.568;6.998;2023-08-08T14:36:54;22.29;63.80
64997;SHT31;51545;51.568;6.998;2023-08-08T14:39:19;22.82;62.08
64997;SHT31;51545;51.568;6.998;2023-08-08T14:41:45;21.39;64.62
64997;SHT31;51545;51.568;6.998;2023-08-08T14:44:10;21.09;64.19
64997;SHT31;51545;51.568;6.998;2023-08-08T14:46:36;21.27;64.62
64997;SHT31;51545;51.568;6.998;2023-08-08T14:49:01;21.47;64.59
64997;SHT31;51545;51.568;6.998;2023-08-08T14:51:29;22.43;64.61
64997;SHT31;51545;51.568;6.998;2023-08-08T14:53:54;21.24;63.36
64997;SHT31;51545;51.568;6.998;2023-08-08T14:56:20;21.01;64.80
64997;SHT31;51545;51.568;6.998;2023-08-08T14:58:45;20.57;65.14
64997;SHT31;51545;51.568;6.998;2023-08-08T15:01:11;20.99;63.80
64997;SHT31;51545;51.568;6.998;2023-08-08T15:03:36;21.08;63.94
64997;SHT31;51545;51.568;6.998;2023-08-08T15:06:02;21.46;64.57
64997;SHT31;51545;51.568;6.998;2023-08-08T15:08:27;21.90;62.15
64997;SHT31;51545;51.568;6.998;2023-08-08T15:10:53;21.12;63.50
64997;SHT31;51545;51.568;6.998;2023-08-08T15:13:19;20.92;65.16
64997;SHT31;51545;51.568;6.998;2023-08-08T15:15:45;20.80;63.73
64997;SHT31;51545;51.568;6.998;2023-08-08T15:18:10;20.70;64.39
64997;SHT31;51545;51.568;6.998;2023-08-08T15:20:36;20.80;64.07
64997;SHT31;51545;51.568;6.998;2023-08-08T15:23:01;20.72;64.12
64997;SHT31;51545;51.568;6.998;2023-08-08T15:25:27;20.88;65.48
64997;SHT31;51545;51.568;6.998;2023-08-08T15:27:52;21.30;60.87
64997;SHT31;51545;51.568;6.998;2023-08-08T15:30:17;21.60;58.75